createdAt,value
2018-12-29T00:01:27.738Z,92.31
2018-12-29T00:03:58.095Z,91.40
2018-12-29T00:06:28.457Z,91.10
2018-12-29T00:08:58.922Z,90.50
2018-12-29T00:11:29.268Z,90.40
2018-12-29T00:13:59.849Z,90.12
2018-12-29T00:16:30.383Z,90.15
2018-12-29T00:19:01.035Z,90.48
2018-12-29T00:21:31.295Z,90.30
2018-12-29T00:24:01.700Z,90.47
2018-12-29T00:26:32.224Z,90.54
2018-12-29T00:29:02.634Z,91.03
2018-12-29T00:31:33.715Z,91.25
2018-12-29T00:34:04.275Z,90.95
2018-12-29T00:36:34.573Z,90.71
2018-12-29T00:39:06.442Z,90.55
2018-12-29T00:41:37.492Z,90.38
2018-12-29T00:44:07.778Z,90.44
2018-12-29T00:46:37.989Z,90.15
2018-12-29T00:49:08.285Z,89.99
2018-12-29T00:51:39.255Z,89.99
2018-12-29T00:54:09.679Z,89.88
2018-12-29T00:56:40.593Z,90.21
2018-12-29T00:59:10.868Z,90.65
2018-12-29T01:01:42.312Z,90.76
2018-12-29T01:04:12.654Z,91.00
2018-12-29T01:06:42.899Z,90.43
2018-12-29T01:09:13.665Z,90.52
2018-12-29T01:11:44.154Z,90.92
2018-12-29T01:14:14.350Z,90.06
2018-12-29T01:16:44.536Z,89.69
2018-12-29T01:19:15.318Z,89.90
2018-12-29T01:21:45.570Z,90.02
2018-12-29T01:24:15.943Z,89.69
2018-12-29T01:26:46.250Z,89.66
2018-12-29T01:29:16.562Z,89.46
2018-12-29T01:31:47.231Z,89.23
2018-12-29T01:34:17.572Z,89.84
2018-12-29T01:36:48.033Z,89.82
2018-12-29T01:39:18.278Z,89.53
2018-12-29T01:41:48.508Z,89.47
2018-12-29T01:44:18.670Z,89.37
2018-12-29T01:46:48.862Z,89.61
2018-12-29T01:49:19.524Z,89.45
2018-12-29T01:51:49.750Z,89.53
2018-12-29T01:54:20.021Z,89.17
2018-12-29T01:56:50.506Z,89.65
2018-12-29T01:59:20.714Z,90.01
2018-12-29T02:01:51.071Z,89.76
2018-12-29T02:04:21.241Z,89.89
2018-12-29T02:06:51.426Z,89.70
2018-12-29T02:09:21.723Z,89.66
2018-12-29T02:11:52.340Z,89.05
2018-12-29T02:14:22.618Z,89.03
2018-12-29T02:16:52.961Z,89.23
2018-12-29T02:19:23.310Z,88.98
2018-12-29T02:21:53.604Z,88.60
2018-12-29T02:24:24.271Z,88.55
2018-12-29T02:26:54.551Z,88.45
2018-12-29T02:29:25.707Z,88.46
2018-12-29T02:31:56.339Z,88.79
2018-12-29T02:34:26.573Z,88.64
2018-12-29T02:36:57.084Z,88.36
2018-12-29T02:39:27.613Z,88.30
2018-12-29T02:41:58.034Z,88.29
2018-12-29T02:44:28.259Z,88.37
2018-12-29T02:46:58.420Z,88.49
2018-12-29T02:49:28.522Z,88.60
2018-12-29T02:51:59.366Z,88.90
2018-12-29T02:54:29.542Z,88.77
2018-12-29T02:56:59.883Z,88.84
2018-12-29T02:59:31.975Z,89.14
2018-12-29T03:02:02.354Z,89.24
2018-12-29T03:04:32.466Z,89.34
2018-12-29T03:07:02.850Z,89.47
2018-12-29T03:09:32.942Z,89.36
2018-12-29T03:12:03.291Z,89.12
2018-12-29T03:14:33.522Z,89.10
2018-12-29T03:17:03.726Z,89.09
2018-12-29T03:19:33.914Z,89.51
2018-12-29T03:22:04.493Z,89.07
2018-12-29T03:24:34.880Z,88.94
2018-12-29T03:27:05.155Z,88.98
2018-12-29T03:29:35.411Z,89.01
2018-12-29T03:32:05.677Z,88.86
2018-12-29T03:34:35.929Z,89.11
2018-12-29T03:37:06.240Z,88.43
2018-12-29T03:39:36.385Z,88.06
2018-12-29T03:42:06.763Z,87.56
2018-12-29T03:44:36.993Z,87.42
2018-12-29T03:47:07.602Z,87.36
2018-12-29T03:49:37.926Z,87.70
2018-12-29T03:52:08.180Z,87.72
2018-12-29T03:54:38.486Z,87.48
2018-12-29T03:57:08.771Z,87.36
2018-12-29T03:59:38.913Z,87.12
2018-12-29T04:02:09.278Z,87.04
2018-12-29T04:04:39.547Z,86.03
2018-12-29T04:07:09.802Z,85.75
2018-12-29T04:09:40.347Z,85.79
2018-12-29T04:12:18.584Z,85.73
2018-12-29T04:14:48.864Z,86.26
2018-12-29T04:17:19.155Z,86.68
2018-12-29T04:19:49.412Z,86.25
2018-12-29T04:22:19.570Z,86.39
2018-12-29T04:24:50.183Z,86.60
2018-12-29T04:27:20.547Z,87.57
2018-12-29T04:29:50.812Z,87.87
2018-12-29T04:32:21.108Z,88.57
2018-12-29T04:34:51.360Z,88.62
2018-12-29T04:37:21.495Z,88.30
2018-12-29T04:39:51.790Z,88.19
2018-12-29T04:42:22.091Z,88.31
2018-12-29T04:44:52.323Z,88.10
2018-12-29T04:47:22.477Z,88.18
2018-12-29T04:49:52.824Z,87.97
2018-12-29T04:52:22.952Z,87.93
2018-12-29T04:54:53.213Z,88.00
2018-12-29T04:57:23.457Z,87.72
2018-12-29T04:59:54.072Z,87.72
2018-12-29T05:02:24.274Z,88.21
2018-12-29T05:04:55.293Z,87.96
2018-12-29T05:07:25.723Z,87.72
2018-12-29T05:09:55.991Z,87.80
2018-12-29T05:12:26.130Z,87.65
2018-12-29T05:14:56.539Z,87.58
2018-12-29T05:17:26.812Z,87.57
2018-12-29T05:19:56.998Z,87.80
2018-12-29T05:22:27.144Z,87.87
2018-12-29T05:24:57.407Z,88.98
2018-12-29T05:27:27.599Z,89.06
2018-12-29T05:29:57.873Z,89.14
2018-12-29T05:32:28.091Z,89.51
2018-12-29T05:34:58.239Z,89.27
2018-12-29T05:37:28.352Z,89.19
2018-12-29T05:39:58.586Z,89.70
2018-12-29T05:42:29.393Z,89.72
2018-12-29T05:44:59.709Z,89.58
2018-12-29T05:47:30.122Z,89.71
2018-12-29T05:50:00.302Z,89.27
2018-12-29T05:52:30.531Z,89.27
2018-12-29T05:55:00.896Z,89.56
2018-12-29T05:57:31.337Z,90.36
2018-12-29T06:00:01.883Z,90.68
2018-12-29T06:02:32.106Z,90.51
2018-12-29T06:05:03.326Z,90.69
2018-12-29T06:07:33.548Z,90.54
2018-12-29T06:10:03.814Z,90.54
2018-12-29T06:12:33.998Z,90.82
2018-12-29T06:15:04.762Z,90.28
2018-12-29T06:17:35.239Z,90.58
2018-12-29T06:20:05.647Z,91.18
2018-12-29T06:22:35.836Z,91.29
2018-12-29T06:25:06.100Z,90.90
2018-12-29T06:27:36.394Z,91.19
2018-12-29T06:30:06.684Z,90.96
2018-12-29T06:32:37.063Z,91.07
2018-12-29T06:35:07.535Z,91.38
2018-12-29T06:37:37.825Z,91.80
2018-12-29T06:40:08.050Z,91.94
2018-12-29T06:42:38.233Z,91.67
2018-12-29T06:45:08.475Z,91.07
2018-12-29T06:47:38.717Z,91.53
2018-12-29T06:50:08.851Z,91.05
2018-12-29T06:52:39.034Z,90.93
2018-12-29T06:55:09.243Z,90.75
2018-12-29T06:57:39.612Z,90.77
2018-12-29T07:00:09.957Z,90.70
2018-12-29T07:02:40.159Z,90.26
2018-12-29T07:05:10.626Z,90.51
2018-12-29T07:07:42.015Z,90.46
2018-12-29T07:10:12.381Z,90.39
2018-12-29T07:12:42.547Z,90.70
2018-12-29T07:15:12.957Z,90.53
2018-12-29T07:17:43.223Z,90.45
2018-12-29T07:20:13.454Z,90.47
2018-12-29T07:22:43.980Z,90.38
2018-12-29T07:25:14.552Z,89.98
2018-12-29T07:27:44.713Z,90.40
2018-12-29T07:30:15.003Z,90.30
2018-12-29T07:32:45.262Z,90.28
2018-12-29T07:35:16.874Z,91.19
2018-12-29T07:37:47.297Z,91.00
2018-12-29T07:40:17.597Z,91.44
2018-12-29T07:42:47.822Z,91.55
2018-12-29T07:45:18.236Z,91.17
2018-12-29T07:47:48.476Z,90.82
2018-12-29T07:50:19.054Z,90.70
2018-12-29T07:52:54.482Z,90.62
2018-12-29T07:55:24.685Z,90.59
2018-12-29T07:57:56.964Z,90.88
2018-12-29T08:00:27.148Z,90.99
2018-12-29T08:02:57.415Z,90.82
2018-12-29T08:05:27.707Z,90.79
2018-12-29T08:07:58.124Z,90.85
2018-12-29T08:10:28.608Z,90.46
2018-12-29T08:12:58.968Z,90.96
2018-12-29T08:15:29.248Z,90.75
2018-12-29T08:17:59.718Z,90.48
2018-12-29T08:20:29.900Z,90.32
2018-12-29T08:23:03.553Z,90.28
2018-12-29T08:25:33.962Z,89.94
2018-12-29T08:28:04.141Z,89.94
2018-12-29T08:30:34.506Z,89.90
2018-12-29T08:33:05.085Z,90.50
2018-12-29T08:35:35.532Z,90.26
2018-12-29T08:38:06.040Z,91.14
2018-12-29T08:40:36.207Z,90.62
2018-12-29T08:43:06.942Z,91.65
2018-12-29T08:45:37.287Z,92.20
2018-12-29T08:48:07.762Z,91.77
2018-12-29T08:50:38.045Z,91.87
2018-12-29T08:53:08.273Z,91.69
2018-12-29T08:55:38.523Z,91.57
2018-12-29T08:58:09.224Z,91.20
2018-12-29T09:00:39.386Z,91.17
2018-12-29T09:03:09.665Z,91.43
2018-12-29T09:05:40.247Z,91.67
2018-12-29T09:08:10.753Z,90.88
2018-12-29T09:10:41.228Z,91.21
2018-12-29T09:13:11.515Z,90.85
2018-12-29T09:15:41.765Z,90.89
2018-12-29T09:18:12.778Z,90.77
2018-12-29T09:20:43.062Z,90.78
2018-12-29T09:23:13.558Z,90.73
2018-12-29T09:25:46.719Z,91.06
2018-12-29T09:28:17.400Z,91.22
2018-12-29T09:30:48.483Z,91.78
2018-12-29T09:33:18.983Z,90.95
2018-12-29T09:35:49.873Z,90.45
2018-12-29T09:38:21.498Z,89.79
2018-12-29T09:40:52.233Z,89.41
2018-12-29T09:43:23.798Z,88.72
2018-12-29T09:45:54.504Z,87.10
2018-12-29T09:48:25.285Z,85.78
2018-12-29T09:50:57.139Z,85.21
2018-12-29T09:53:27.676Z,84.56
2018-12-29T09:55:58.740Z,83.84
2018-12-29T09:58:29.602Z,83.34
2018-12-29T10:01:00.043Z,83.60
2018-12-29T10:03:30.814Z,83.24
2018-12-29T10:06:01.563Z,80.60
2018-12-29T10:08:32.089Z,79.01
2018-12-29T10:11:02.758Z,77.36
2018-12-29T10:13:33.102Z,76.42
2018-12-29T10:16:06.912Z,76.16
2018-12-29T10:18:37.387Z,76.05
2018-12-29T10:21:08.227Z,76.26
2018-12-29T10:23:38.813Z,74.43
2018-12-29T10:26:09.561Z,70.06
2018-12-29T10:28:39.990Z,67.50
2018-12-29T10:31:11.149Z,65.27
2018-12-29T10:33:42.064Z,63.67
2018-12-29T10:36:12.326Z,63.54
2018-12-29T10:38:42.785Z,62.59
2018-12-29T10:41:13.006Z,61.97
2018-12-29T10:43:44.708Z,60.78
2018-12-29T10:46:15.115Z,60.64
2018-12-29T10:48:45.525Z,60.14
2018-12-29T10:51:16.274Z,62.81
2018-12-29T10:53:46.642Z,63.93
2018-12-29T10:56:17.206Z,65.38
2018-12-29T10:58:47.743Z,67.15
2018-12-29T11:01:18.229Z,69.36
2018-12-29T11:03:48.535Z,71.13
2018-12-29T11:06:18.702Z,70.65
2018-12-29T11:08:48.938Z,73.23
2018-12-29T11:11:19.159Z,71.96
2018-12-29T11:13:49.405Z,74.52
2018-12-29T11:16:23.349Z,74.52
2018-12-29T11:18:53.608Z,73.30
2018-12-29T11:21:23.878Z,72.44
2018-12-29T11:23:54.150Z,72.65
2018-12-29T11:26:24.444Z,71.62
2018-12-29T11:28:54.903Z,71.13
2018-12-29T11:31:25.453Z,71.12
2018-12-29T11:33:55.761Z,72.23
2018-12-29T11:36:26.029Z,74.60
2018-12-29T11:38:56.368Z,73.10
2018-12-29T11:41:27.409Z,73.06
2018-12-29T11:43:57.617Z,71.51
2018-12-29T11:46:27.930Z,72.35
2018-12-29T11:48:58.527Z,72.12
2018-12-29T11:51:29.149Z,72.29
2018-12-29T11:53:59.608Z,71.41
2018-12-29T11:56:30.243Z,71.86
2018-12-29T11:59:00.840Z,70.63
2018-12-29T12:01:31.107Z,71.25
2018-12-29T12:04:01.403Z,72.53
2018-12-29T12:06:31.963Z,71.31
2018-12-29T12:09:02.487Z,71.06
2018-12-29T12:11:33.338Z,72.93
2018-12-29T12:14:03.927Z,73.32
2018-12-29T12:16:34.208Z,72.74
2018-12-29T12:19:06.092Z,74.68
2018-12-29T12:21:36.929Z,75.89
2018-12-29T12:24:07.419Z,76.28
2018-12-29T12:26:37.877Z,75.60
2018-12-29T12:29:08.213Z,75.52
2018-12-29T12:31:39.059Z,73.96
2018-12-29T12:34:09.506Z,74.47
2018-12-29T12:36:40.417Z,73.55
2018-12-29T12:39:10.932Z,73.29
2018-12-29T12:41:41.228Z,73.67
2018-12-29T12:44:11.458Z,73.26
2018-12-29T12:46:42.161Z,74.81
2018-12-29T12:49:12.938Z,75.41
2018-12-29T12:51:43.675Z,75.52
2018-12-29T12:54:14.398Z,74.50
2018-12-29T12:56:45.020Z,73.88
2018-12-29T12:59:16.047Z,74.24
2018-12-29T13:01:47.012Z,74.01
2018-12-29T13:04:17.411Z,74.08
2018-12-29T13:06:47.814Z,73.91
2018-12-29T13:09:18.284Z,74.03
2018-12-29T13:11:48.450Z,74.19
2018-12-29T13:14:18.642Z,74.45
2018-12-29T13:16:50.397Z,74.73
2018-12-29T13:19:28.401Z,74.41
2018-12-29T13:21:53.652Z,74.31
2018-12-29T13:24:23.933Z,75.02
2018-12-29T13:26:54.314Z,74.74
2018-12-29T13:29:24.991Z,74.75
2018-12-29T13:31:55.353Z,74.80
2018-12-29T13:34:25.777Z,74.81
2018-12-29T13:36:56.529Z,74.44
2018-12-29T13:39:27.050Z,75.01
2018-12-29T13:41:57.478Z,74.95
2018-12-29T13:44:27.807Z,74.41
2018-12-29T13:46:58.801Z,73.83
2018-12-29T13:49:29.056Z,73.98
2018-12-29T13:51:59.944Z,73.88
2018-12-29T13:54:30.310Z,74.01
2018-12-29T13:57:00.548Z,73.97
2018-12-29T13:59:30.853Z,74.55
2018-12-29T14:02:01.053Z,74.80
2018-12-29T14:04:31.370Z,75.13
2018-12-29T14:07:01.647Z,75.22
2018-12-29T14:09:32.212Z,75.15
2018-12-29T14:12:02.581Z,75.38
2018-12-29T14:14:33.033Z,75.05
2018-12-29T14:17:03.762Z,75.05
2018-12-29T14:19:34.183Z,74.66
2018-12-29T14:22:04.364Z,75.39
2018-12-29T14:24:35.287Z,75.49
2018-12-29T14:27:05.639Z,75.83
2018-12-29T14:29:35.836Z,75.51
2018-12-29T14:32:06.066Z,75.46
2018-12-29T14:34:36.308Z,75.79
2018-12-29T14:37:06.721Z,75.80
2018-12-29T14:39:36.872Z,75.84
2018-12-29T14:42:07.541Z,75.96
2018-12-29T14:44:37.968Z,76.61
2018-12-29T14:47:08.574Z,77.28
2018-12-29T14:49:38.802Z,77.72
2018-12-29T14:52:09.359Z,77.91
2018-12-29T14:54:39.662Z,78.46
2018-12-29T14:57:10.393Z,78.89
2018-12-29T14:59:40.869Z,78.91
2018-12-29T15:02:11.322Z,78.61
2018-12-29T15:04:41.676Z,78.66
2018-12-29T15:07:11.962Z,79.86
2018-12-29T15:09:42.280Z,80.04
2018-12-29T15:12:12.539Z,79.76
2018-12-29T15:14:44.899Z,79.73
2018-12-29T15:17:15.305Z,79.96
2018-12-29T15:19:45.902Z,79.91
2018-12-29T15:22:16.514Z,80.20
2018-12-29T15:24:47.441Z,80.24
2018-12-29T15:27:18.026Z,80.73
2018-12-29T15:29:48.462Z,81.16
2018-12-29T15:32:19.394Z,81.51
2018-12-29T15:34:49.672Z,81.40
2018-12-29T15:37:19.900Z,81.30
2018-12-29T15:39:50.292Z,82.02
2018-12-29T15:42:20.987Z,81.85
2018-12-29T15:44:51.464Z,82.88
2018-12-29T15:47:21.638Z,82.54
2018-12-29T15:49:52.223Z,83.34
2018-12-29T15:52:22.768Z,83.11
2018-12-29T15:54:53.455Z,83.47
2018-12-29T15:57:23.868Z,83.08
2018-12-29T15:59:54.061Z,82.94
2018-12-29T16:02:24.245Z,83.00
2018-12-29T16:04:55.148Z,83.67
2018-12-29T16:07:26.187Z,84.77
2018-12-29T16:09:56.539Z,85.11
2018-12-29T16:12:27.065Z,85.56
2018-12-29T16:14:57.626Z,85.63
2018-12-29T16:17:28.107Z,86.25
2018-12-29T16:19:58.982Z,86.88
2018-12-29T16:22:29.419Z,86.24
2018-12-29T16:24:59.834Z,86.22
2018-12-29T16:27:30.370Z,86.75
2018-12-29T16:30:00.949Z,86.84
2018-12-29T16:32:31.207Z,87.00
2018-12-29T16:35:01.633Z,87.16
2018-12-29T16:37:31.916Z,87.19
2018-12-29T16:40:02.407Z,87.87
2018-12-29T16:42:33.057Z,88.03
2018-12-29T16:45:03.351Z,88.05
2018-12-29T16:47:33.508Z,88.45
2018-12-29T16:50:06.504Z,88.76
2018-12-29T16:52:36.825Z,89.14
2018-12-29T16:55:07.732Z,89.13
2018-12-29T16:57:37.976Z,89.27
2018-12-29T17:00:08.359Z,88.96
2018-12-29T17:02:38.616Z,88.58
2018-12-29T17:05:09.499Z,88.18
2018-12-29T17:07:40.298Z,88.15
2018-12-29T17:10:10.958Z,88.14
2018-12-29T17:12:41.272Z,88.34
2018-12-29T17:15:12.480Z,88.37
2018-12-29T17:17:42.793Z,88.57
2018-12-29T17:20:13.004Z,88.56
2018-12-29T17:22:45.413Z,88.39
2018-12-29T17:25:16.001Z,88.05
2018-12-29T17:27:46.411Z,87.99
2018-12-29T17:30:16.747Z,88.38
2018-12-29T17:32:47.667Z,88.53
2018-12-29T17:35:17.940Z,88.55
2018-12-29T17:37:48.348Z,89.11
2018-12-29T17:40:20.654Z,89.22
2018-12-29T17:42:51.338Z,89.17
2018-12-29T17:45:21.801Z,89.29
2018-12-29T17:47:52.599Z,89.55
2018-12-29T17:50:22.987Z,89.49
2018-12-29T17:52:53.762Z,89.87
2018-12-29T17:55:24.228Z,90.08
2018-12-29T17:57:55.203Z,90.18
2018-12-29T18:00:25.944Z,90.16
2018-12-29T18:02:56.146Z,90.23
2018-12-29T18:05:26.338Z,90.20
2018-12-29T18:07:56.550Z,90.14
2018-12-29T18:10:27.540Z,90.21
2018-12-29T18:12:57.827Z,90.36
2018-12-29T18:15:28.456Z,91.45
2018-12-29T18:17:59.031Z,91.45
2018-12-29T18:20:29.436Z,91.28
2018-12-29T18:23:00.219Z,91.00
2018-12-29T18:25:30.439Z,90.66
2018-12-29T18:28:00.700Z,90.38
2018-12-29T18:30:31.793Z,90.22
2018-12-29T18:33:02.456Z,89.81
2018-12-29T18:35:32.710Z,89.36
2018-12-29T18:38:03.440Z,89.13
2018-12-29T18:40:33.964Z,88.99
2018-12-29T18:43:04.551Z,89.29
2018-12-29T18:45:35.334Z,88.86
2018-12-29T18:48:06.287Z,88.40
2018-12-29T18:50:36.579Z,88.11
2018-12-29T18:53:06.984Z,87.83
2018-12-29T18:55:37.611Z,87.86
2018-12-29T18:58:08.251Z,87.90
2018-12-29T19:00:39.434Z,88.18
2018-12-29T19:03:10.436Z,87.93
2018-12-29T19:05:41.254Z,87.65
2018-12-29T19:08:11.645Z,87.66
2018-12-29T19:10:42.184Z,87.18
2018-12-29T19:13:13.034Z,86.91
2018-12-29T19:15:43.546Z,86.71
2018-12-29T19:18:13.875Z,86.53
2018-12-29T19:20:45.564Z,86.62
2018-12-29T19:23:16.797Z,86.73
2018-12-29T19:25:47.637Z,86.99
2018-12-29T19:28:18.239Z,86.92
2018-12-29T19:30:48.577Z,87.02
2018-12-29T19:33:19.516Z,86.91
2018-12-29T19:35:50.145Z,86.89
2018-12-29T19:38:20.917Z,86.54
2018-12-29T19:40:51.235Z,86.37
2018-12-29T19:43:22.218Z,86.41
2018-12-29T19:45:52.517Z,86.43
2018-12-29T19:48:22.796Z,87.06
2018-12-29T19:50:53.885Z,86.95
2018-12-29T19:53:25.043Z,86.56
2018-12-29T19:55:55.495Z,86.42
2018-12-29T19:58:26.151Z,86.34
2018-12-29T20:00:56.907Z,86.02
2018-12-29T20:03:27.805Z,85.99
2018-12-29T20:05:58.256Z,85.98
2018-12-29T20:08:28.990Z,86.16
2018-12-29T20:10:59.451Z,86.72
2018-12-29T20:13:29.868Z,86.33
2018-12-29T20:16:00.660Z,86.27
2018-12-29T20:18:31.133Z,86.11
2018-12-29T20:21:02.031Z,85.88
2018-12-29T20:23:32.478Z,85.86
2018-12-29T20:26:03.209Z,86.16
2018-12-29T20:28:33.672Z,86.32
2018-12-29T20:31:05.760Z,86.04
2018-12-29T20:33:39.216Z,86.40
2018-12-29T20:36:09.719Z,86.29
2018-12-29T20:38:40.253Z,86.62
2018-12-29T20:41:10.629Z,86.51
2018-12-29T20:43:41.075Z,87.10
2018-12-29T20:46:12.042Z,86.88
2018-12-29T20:48:43.114Z,87.25
2018-12-29T20:51:13.839Z,87.78
2018-12-29T20:53:45.046Z,88.54
2018-12-29T20:56:15.938Z,88.78
2018-12-29T20:58:46.727Z,89.44
2018-12-29T21:01:17.426Z,91.49
2018-12-29T21:03:48.199Z,91.31
2018-12-29T21:06:18.944Z,91.63
2018-12-29T21:08:49.798Z,91.55
2018-12-29T21:11:20.544Z,91.69
2018-12-29T21:13:51.315Z,91.80
2018-12-29T21:16:21.993Z,91.96
2018-12-29T21:18:52.909Z,92.04
2018-12-29T21:21:23.624Z,91.96
2018-12-29T21:23:54.563Z,92.02
2018-12-29T21:26:24.974Z,92.00
2018-12-29T21:28:55.811Z,91.71
2018-12-29T21:31:26.816Z,91.45
2018-12-29T21:33:57.445Z,91.35
2018-12-29T21:36:28.120Z,91.33
2018-12-29T21:38:58.996Z,91.36
2018-12-29T21:41:29.944Z,91.33
2018-12-29T21:44:00.533Z,91.39
2018-12-29T21:46:31.127Z,91.45
2018-12-29T21:49:01.762Z,91.60
2018-12-29T21:51:33.642Z,91.73
2018-12-29T21:54:04.688Z,92.04
2018-12-29T21:56:35.575Z,92.22
2018-12-29T21:59:06.190Z,92.27
2018-12-29T22:01:36.485Z,92.39
2018-12-29T22:04:07.398Z,92.38
2018-12-29T22:06:38.337Z,92.39
2018-12-29T22:09:09.030Z,92.88
2018-12-29T22:11:39.302Z,93.18
2018-12-29T22:14:09.618Z,93.71
2018-12-29T22:16:40.390Z,93.71
2018-12-29T22:19:10.789Z,94.54
2018-12-29T22:21:41.509Z,95.02
2018-12-29T22:24:12.004Z,95.57
2018-12-29T22:26:42.297Z,95.49
2018-12-29T22:29:12.593Z,95.48
2018-12-29T22:31:43.298Z,95.89
2018-12-29T22:34:13.927Z,95.62
2018-12-29T22:36:44.600Z,95.71
2018-12-29T22:39:15.301Z,95.49
2018-12-29T22:41:46.262Z,95.16
2018-12-29T22:44:16.723Z,95.08
2018-12-29T22:46:47.428Z,94.82
2018-12-29T22:49:17.676Z,94.73
2018-12-29T22:51:48.345Z,94.62
2018-12-29T22:54:18.757Z,94.47
2018-12-29T22:56:49.596Z,94.26
2018-12-29T22:59:20.191Z,94.04
2018-12-29T23:01:50.762Z,93.92
2018-12-29T23:04:21.443Z,93.91
2018-12-29T23:06:52.103Z,93.76
2018-12-29T23:09:22.461Z,93.51
2018-12-29T23:11:52.757Z,93.42
2018-12-29T23:14:24.055Z,93.41
2018-12-29T23:16:54.915Z,93.36
2018-12-29T23:19:25.546Z,93.32
2018-12-29T23:21:56.280Z,93.27
2018-12-29T23:24:26.636Z,93.22
2018-12-29T23:26:57.238Z,93.02
2018-12-29T23:29:27.706Z,93.06
2018-12-29T23:31:58.138Z,93.01
2018-12-29T23:34:29.063Z,92.93
2018-12-29T23:36:59.307Z,92.90
2018-12-29T23:39:29.734Z,92.85
2018-12-29T23:42:00.623Z,92.85
2018-12-29T23:44:31.271Z,92.84
2018-12-29T23:47:01.900Z,92.68
2018-12-29T23:49:32.473Z,92.51
2018-12-29T23:52:03.353Z,92.43
2018-12-29T23:54:34.414Z,92.43
2018-12-29T23:57:04.746Z,92.47
2018-12-29T23:59:35.391Z,92.23
